createdAt,value
2022-08-23T00:01:26.726Z,6.37
2022-08-23T00:04:53.318Z,6.82
2022-08-23T00:08:07.213Z,7.10
2022-08-23T00:11:29.202Z,6.60
2022-08-23T00:14:34.855Z,7.30
2022-08-23T00:17:39.779Z,7.20
2022-08-23T00:20:44.011Z,7.07
2022-08-23T00:23:47.732Z,7.80
2022-08-23T00:27:15.563Z,7.30
2022-08-23T00:30:19.384Z,7.50
2022-08-23T00:33:23.007Z,7.43
2022-08-23T00:36:26.026Z,7.53
2022-08-23T00:39:28.929Z,8.15
2022-08-23T00:43:03.655Z,7.93
2022-08-23T00:46:41.563Z,7.63
2022-08-23T00:49:50.414Z,8.00
2022-08-23T00:53:13.111Z,7.95
2022-08-23T00:56:18.836Z,8.40
2022-08-23T00:59:22.192Z,7.70
2022-08-23T01:02:25.789Z,8.10
2022-08-23T01:05:52.841Z,8.00
2022-08-23T01:09:01.389Z,7.43
2022-08-23T01:12:16.130Z,8.07
2022-08-23T01:15:27.838Z,7.37
2022-08-23T01:18:32.078Z,7.37
2022-08-23T01:21:50.492Z,6.35
2022-08-23T01:25:07.497Z,7.40
2022-08-23T01:28:12.039Z,6.62
2022-08-23T01:31:17.123Z,6.50
2022-08-23T01:34:27.360Z,6.23
2022-08-23T01:37:30.192Z,5.90
2022-08-23T01:40:34.431Z,6.62
2022-08-23T01:43:38.054Z,6.35
2022-08-23T01:46:45.029Z,6.10
2022-08-23T01:49:48.454Z,6.67
2022-08-23T01:52:52.870Z,6.43
2022-08-23T01:55:56.432Z,7.47
2022-08-23T01:59:00.260Z,7.68
2022-08-23T02:02:05.363Z,7.50
2022-08-23T02:05:09.974Z,7.13
2022-08-23T02:08:32.757Z,7.53
2022-08-23T02:11:41.006Z,7.05
2022-08-23T02:14:43.949Z,7.35
2022-08-23T02:17:51.954Z,7.20
2022-08-23T02:20:56.471Z,7.23
2022-08-23T02:24:04.120Z,6.78
2022-08-23T02:27:08.158Z,6.55
2022-08-23T02:30:12.012Z,6.57
2022-08-23T02:33:15.413Z,6.37
2022-08-23T02:39:31.176Z,6.28
2022-08-23T02:42:34.837Z,6.05
2022-08-23T02:50:06.734Z,5.87
2022-08-23T02:53:10.356Z,5.70
2022-08-23T02:56:21.394Z,5.50
2022-08-23T02:59:25.034Z,6.60
2022-08-23T03:02:27.924Z,5.90
2022-08-23T03:05:32.038Z,6.83
2022-08-23T03:08:35.457Z,6.43
2022-08-23T03:11:43.522Z,6.12
2022-08-23T03:14:47.235Z,5.25
2022-08-23T03:17:50.978Z,5.68
2022-08-23T03:20:55.320Z,5.10
2022-08-23T03:23:58.541Z,5.00
2022-08-23T03:27:01.626Z,4.93
2022-08-23T03:30:09.540Z,4.45
2022-08-23T03:33:21.275Z,5.22
2022-08-23T03:36:27.721Z,5.00
2022-08-23T03:39:31.582Z,4.60
2022-08-23T03:42:34.639Z,5.60
2022-08-23T03:45:37.917Z,5.70
2022-08-23T03:48:42.922Z,5.47
2022-08-23T03:51:45.678Z,5.20
2022-08-23T03:54:51.601Z,5.30
2022-08-23T03:57:54.609Z,4.57
2022-08-23T04:00:57.984Z,5.45
2022-08-23T04:04:01.090Z,4.57
2022-08-23T04:07:05.184Z,4.70
2022-08-23T04:10:12.598Z,4.27
2022-08-23T04:13:15.726Z,2.80
2022-08-23T04:16:21.851Z,2.50
2022-08-23T04:19:24.894Z,2.35
2022-08-23T04:22:29.061Z,2.70
2022-08-23T04:25:35.482Z,2.20
2022-08-23T04:28:39.646Z,2.10
2022-08-23T04:31:45.037Z,2.20
2022-08-23T04:34:51.980Z,2.15
2022-08-23T04:37:54.776Z,2.23
2022-08-23T04:41:16.886Z,2.70
2022-08-23T04:44:21.867Z,2.42
2022-08-23T04:47:25.398Z,2.50
2022-08-23T04:50:28.361Z,2.85
2022-08-23T04:53:38.817Z,2.63
2022-08-23T04:56:42.992Z,2.90
2022-08-23T04:59:46.272Z,2.83
2022-08-23T05:02:51.183Z,2.62
2022-08-23T05:05:54.896Z,2.50
2022-08-23T05:08:58.819Z,2.80
2022-08-23T05:12:01.787Z,2.07
2022-08-23T05:15:06.172Z,2.70
2022-08-23T05:18:10.538Z,2.35
2022-08-23T05:21:20.045Z,2.25
2022-08-23T05:24:23.282Z,2.63
2022-08-23T05:27:26.948Z,2.00
2022-08-23T05:30:31.648Z,2.10
2022-08-23T05:33:35.259Z,2.40
2022-08-23T05:36:47.423Z,2.33
2022-08-23T05:39:57.954Z,2.22
2022-08-23T05:43:01.541Z,1.90
2022-08-23T05:46:07.038Z,1.97
2022-08-23T05:49:21.091Z,1.90
2022-08-23T05:52:24.096Z,2.20
2022-08-23T05:55:27.643Z,2.00
2022-08-23T05:58:39.871Z,2.33
2022-08-23T06:01:46.144Z,2.37
2022-08-23T06:04:57.131Z,2.50
2022-08-23T06:08:00.796Z,2.17
2022-08-23T06:11:09.362Z,2.15
2022-08-23T06:14:13.638Z,2.60
2022-08-23T06:17:18.281Z,2.73
2022-08-23T06:20:21.325Z,2.37
2022-08-23T06:23:25.013Z,2.30
2022-08-23T06:26:33.072Z,2.90
2022-08-23T06:29:36.569Z,2.35
2022-08-23T06:32:40.247Z,2.53
2022-08-23T06:36:04.729Z,2.30
2022-08-23T06:39:10.911Z,2.40
2022-08-23T06:45:39.039Z,2.70
2022-08-23T06:48:46.678Z,2.80
2022-08-23T06:51:55.361Z,2.83
2022-08-23T06:54:59.430Z,2.72
2022-08-23T06:58:03.566Z,3.10
2022-08-23T07:01:45.509Z,2.80
2022-08-23T07:04:54.215Z,2.47
2022-08-23T07:07:59.193Z,3.03
2022-08-23T07:11:01.968Z,3.10
2022-08-23T07:14:10.681Z,3.67
2022-08-23T07:17:14.675Z,3.83
2022-08-23T07:20:17.734Z,3.77
2022-08-23T07:23:21.987Z,3.57
2022-08-23T07:26:25.589Z,3.67
2022-08-23T07:29:30.932Z,4.12
2022-08-23T07:32:33.951Z,4.20
2022-08-23T07:35:46.178Z,4.60
2022-08-23T07:38:51.599Z,4.13
2022-08-23T07:41:55.253Z,4.15
2022-08-23T07:44:58.602Z,4.00
2022-08-23T07:48:03.482Z,4.15
2022-08-23T07:51:10.567Z,3.90
2022-08-23T07:54:13.895Z,3.80
2022-08-23T07:57:18.348Z,4.00
2022-08-23T08:00:21.355Z,4.25
2022-08-23T08:03:24.672Z,3.83
2022-08-23T08:06:42.783Z,4.37
2022-08-23T08:09:46.087Z,4.43
2022-08-23T08:12:50.156Z,4.70
2022-08-23T08:15:53.818Z,4.50
2022-08-23T08:19:01.084Z,4.20
2022-08-23T08:22:08.229Z,4.33
2022-08-23T08:25:15.734Z,4.10
2022-08-23T08:28:19.050Z,4.10
2022-08-23T08:31:23.607Z,3.83
2022-08-23T08:34:26.919Z,4.25
2022-08-23T08:37:31.241Z,4.20
2022-08-23T08:40:40.568Z,4.17
2022-08-23T08:44:16.430Z,4.50
2022-08-23T08:47:36.640Z,4.60
2022-08-23T08:50:45.058Z,4.25
2022-08-23T08:53:51.346Z,4.60
2022-08-23T08:56:59.758Z,4.67
2022-08-23T09:00:30.532Z,4.47
2022-08-23T09:03:36.075Z,4.57
2022-08-23T09:06:48.523Z,4.45
2022-08-23T09:10:09.916Z,4.87
2022-08-23T09:13:45.976Z,5.23
2022-08-23T09:16:58.009Z,5.40
2022-08-23T09:20:04.948Z,5.40
2022-08-23T09:23:23.337Z,5.03
2022-08-23T09:26:30.856Z,5.83
2022-08-23T09:29:36.444Z,5.70
2022-08-23T09:32:43.348Z,5.32
2022-08-23T09:36:05.511Z,5.87
2022-08-23T09:39:31.343Z,5.47
2022-08-23T09:42:38.416Z,6.13
2022-08-23T09:45:51.153Z,6.13
2022-08-23T09:49:02.211Z,7.00
2022-08-23T09:52:24.963Z,6.32
2022-08-23T09:55:40.216Z,6.57
2022-08-23T09:58:47.369Z,7.60
2022-08-23T10:01:52.810Z,7.67
2022-08-23T10:05:03.168Z,5.95
2022-08-23T10:08:10.292Z,6.57
2022-08-23T10:11:28.387Z,6.82
2022-08-23T10:14:35.549Z,5.97
2022-08-23T10:17:42.351Z,6.17
2022-08-23T10:20:54.825Z,5.95
2022-08-23T10:24:00.774Z,6.20
2022-08-23T10:27:53.296Z,5.50
2022-08-23T10:31:24.711Z,5.83
2022-08-23T10:34:52.288Z,5.57
2022-08-23T10:38:17.784Z,5.55
2022-08-23T10:41:27.216Z,6.20
2022-08-23T10:44:36.187Z,6.10
2022-08-23T10:47:52.806Z,6.43
2022-08-23T10:51:22.596Z,6.97
2022-08-23T10:54:36.043Z,7.60
2022-08-23T10:57:42.584Z,6.85
2022-08-23T11:00:46.509Z,7.40
2022-08-23T11:04:26.030Z,7.53
2022-08-23T11:07:37.060Z,8.57
2022-08-23T11:10:40.356Z,7.07
2022-08-23T11:13:54.255Z,6.30
2022-08-23T11:17:06.414Z,6.40
2022-08-23T11:20:12.843Z,6.30
2022-08-23T11:23:36.213Z,7.50
2022-08-23T11:26:42.455Z,7.12
2022-08-23T11:29:46.354Z,7.53
2022-08-23T11:32:51.965Z,7.00
2022-08-23T11:36:17.911Z,6.20
2022-08-23T11:39:26.966Z,6.53
2022-08-23T11:42:30.021Z,6.20
2022-08-23T11:45:45.238Z,6.07
2022-08-23T11:49:27.358Z,5.78
2022-08-23T11:52:48.465Z,6.13
2022-08-23T11:56:28.983Z,5.67
2022-08-23T11:59:50.632Z,5.80
2022-08-23T12:03:04.861Z,5.10
2022-08-23T12:06:39.215Z,5.68
2022-08-23T12:09:43.248Z,5.83
2022-08-23T12:13:19.563Z,5.73
2022-08-23T12:16:24.311Z,5.75
2022-08-23T12:19:40.783Z,5.57
2022-08-23T12:23:08.305Z,6.60
2022-08-23T12:26:40.578Z,5.27
2022-08-23T12:29:56.543Z,5.83
2022-08-23T12:33:10.059Z,5.68
2022-08-23T12:36:30.381Z,5.50
2022-08-23T12:39:37.360Z,5.40
2022-08-23T12:42:41.589Z,5.43
2022-08-23T12:45:51.328Z,5.27
2022-08-23T12:48:55.132Z,5.45
2022-08-23T12:52:01.820Z,5.22
2022-08-23T12:55:14.513Z,4.80
2022-08-23T12:58:31.733Z,5.07
2022-08-23T13:01:39.274Z,5.10
2022-08-23T13:04:43.761Z,5.00
2022-08-23T13:07:46.528Z,5.20
2022-08-23T13:10:50.143Z,4.70
2022-08-23T13:13:55.556Z,4.90
2022-08-23T13:17:32.332Z,4.47
2022-08-23T13:20:36.763Z,4.75
2022-08-23T13:23:39.770Z,4.20
2022-08-23T13:26:47.247Z,4.50
2022-08-23T13:29:51.415Z,4.40
2022-08-23T13:33:14.037Z,4.13
2022-08-23T13:36:21.691Z,4.25
2022-08-23T13:39:24.494Z,4.53
2022-08-23T13:42:34.113Z,4.40
2022-08-23T13:45:45.655Z,4.60
2022-08-23T13:49:06.081Z,4.30
2022-08-23T13:55:43.991Z,4.12
2022-08-23T13:59:19.905Z,4.40
2022-08-23T14:02:24.214Z,4.03
2022-08-23T14:05:27.298Z,3.93
2022-08-23T14:08:29.980Z,3.80
2022-08-23T14:11:34.128Z,4.30
2022-08-23T14:14:38.508Z,4.37
2022-08-23T14:17:48.263Z,4.63
2022-08-23T14:20:51.273Z,4.10
2022-08-23T14:23:54.831Z,4.00
2022-08-23T14:26:57.931Z,3.97
2022-08-23T14:30:01.378Z,3.53
2022-08-23T14:33:04.560Z,3.93
2022-08-23T14:36:08.070Z,3.90
2022-08-23T14:39:14.772Z,3.97
2022-08-23T14:42:24.370Z,3.92
2022-08-23T14:45:27.497Z,4.30
2022-08-23T14:48:30.678Z,3.93
2022-08-23T14:51:36.857Z,3.90
2022-08-23T14:54:46.445Z,3.70
2022-08-23T14:57:51.945Z,4.05
2022-08-23T15:00:54.963Z,3.97
2022-08-23T15:04:01.756Z,3.43
2022-08-23T15:07:20.704Z,3.80
2022-08-23T15:13:55.310Z,3.78
2022-08-23T15:17:00.028Z,3.75
2022-08-23T15:20:03.974Z,3.77
2022-08-23T15:23:08.459Z,3.83
2022-08-23T15:26:13.929Z,3.67
2022-08-23T15:29:19.073Z,3.30
2022-08-23T15:32:23.444Z,3.25
2022-08-23T15:35:27.499Z,3.87
2022-08-23T15:38:34.341Z,3.37
2022-08-23T15:41:37.150Z,3.62
2022-08-23T15:44:40.159Z,3.55
2022-08-23T15:47:51.623Z,3.53
2022-08-23T15:50:58.249Z,3.90
2022-08-23T15:54:01.007Z,3.60
2022-08-23T15:57:05.215Z,3.85
2022-08-23T16:00:08.479Z,3.37
2022-08-23T16:03:19.863Z,3.47
2022-08-23T16:06:36.249Z,3.70
2022-08-23T16:09:39.333Z,3.30
2022-08-23T16:12:42.333Z,3.30
2022-08-23T16:15:47.012Z,3.05
2022-08-23T16:18:51.711Z,3.40
2022-08-23T16:21:54.851Z,3.50
2022-08-23T16:24:58.388Z,3.07
2022-08-23T16:28:01.336Z,3.83
2022-08-23T16:31:04.466Z,3.22
2022-08-23T16:34:15.378Z,3.25
2022-08-23T16:37:18.402Z,3.23
2022-08-23T16:40:21.524Z,3.30
2022-08-23T16:43:24.510Z,3.40
2022-08-23T16:46:29.051Z,3.55
2022-08-23T16:49:33.757Z,3.40
2022-08-23T16:52:36.662Z,3.43
2022-08-23T16:55:40.113Z,3.23
2022-08-23T16:58:44.036Z,3.30
2022-08-23T17:02:01.005Z,3.20
2022-08-23T17:05:17.307Z,3.25
2022-08-23T17:08:20.242Z,3.10
2022-08-23T17:11:23.229Z,3.20
2022-08-23T17:14:35.271Z,3.25
2022-08-23T17:17:39.447Z,3.28
2022-08-23T17:20:43.872Z,3.22
2022-08-23T17:23:46.659Z,3.57
2022-08-23T17:26:50.790Z,3.50
2022-08-23T17:29:54.741Z,3.53
2022-08-23T17:32:58.500Z,3.87
2022-08-23T17:36:01.451Z,4.18
2022-08-23T17:39:10.358Z,3.97
2022-08-23T17:42:13.486Z,3.73
2022-08-23T17:45:16.755Z,4.10
2022-08-23T17:48:22.058Z,4.07
2022-08-23T17:51:25.187Z,4.30
2022-08-23T17:54:29.265Z,4.60
2022-08-23T17:57:35.575Z,4.43
2022-08-23T18:00:39.634Z,4.18
2022-08-23T18:03:42.804Z,4.07
2022-08-23T18:06:46.118Z,4.35
2022-08-23T18:09:49.489Z,4.67
2022-08-23T18:12:53.106Z,4.67
2022-08-23T18:15:56.222Z,4.65
2022-08-23T18:19:00.765Z,4.22
2022-08-23T18:22:04.214Z,4.50
2022-08-23T18:25:09.766Z,4.80
2022-08-23T18:28:14.422Z,4.40
2022-08-23T18:31:17.445Z,5.05
2022-08-23T18:34:21.031Z,4.68
2022-08-23T18:37:24.167Z,4.78
2022-08-23T18:40:28.176Z,4.43
2022-08-23T18:43:37.080Z,4.47
2022-08-23T18:46:43.773Z,4.85
2022-08-23T18:49:46.834Z,4.97
2022-08-23T18:52:50.144Z,5.20
2022-08-23T18:55:54.678Z,5.40
2022-08-23T18:58:58.089Z,5.40
2022-08-23T19:02:01.335Z,5.78
2022-08-23T19:05:05.136Z,5.97
2022-08-23T19:08:09.284Z,5.32
2022-08-23T19:11:12.860Z,5.20
2022-08-23T19:14:16.943Z,5.50
2022-08-23T19:17:20.392Z,6.28
2022-08-23T19:20:23.706Z,5.82
2022-08-23T19:23:27.094Z,5.70
2022-08-23T19:26:34.742Z,6.40
2022-08-23T19:29:38.221Z,6.00
2022-08-23T19:32:41.157Z,5.80
2022-08-23T19:35:44.855Z,5.45
2022-08-23T19:38:47.905Z,6.82
2022-08-23T19:41:51.384Z,6.23
2022-08-23T19:44:54.880Z,6.60
2022-08-23T19:48:00.225Z,6.15
2022-08-23T19:51:03.556Z,6.37
2022-08-23T19:54:11.500Z,6.55
2022-08-23T19:57:15.229Z,7.03
2022-08-23T20:00:19.813Z,6.37
2022-08-23T20:03:23.381Z,7.75
2022-08-23T20:06:26.530Z,7.97
2022-08-23T20:09:32.498Z,6.75
2022-08-23T20:12:35.360Z,6.53
2022-08-23T20:15:40.018Z,6.33
2022-08-23T20:18:43.855Z,7.10
2022-08-23T20:21:47.423Z,7.55
2022-08-23T20:24:52.958Z,7.20
2022-08-23T20:27:57.073Z,7.43
2022-08-23T20:31:22.859Z,7.67
2022-08-23T20:34:28.457Z,8.43
2022-08-23T20:37:31.546Z,7.55
2022-08-23T20:40:34.556Z,6.55
2022-08-23T20:43:39.267Z,7.07
2022-08-23T20:46:44.269Z,6.93
2022-08-23T20:49:47.116Z,7.20
2022-08-23T20:52:51.434Z,7.15
2022-08-23T20:55:54.597Z,7.20
2022-08-23T20:58:57.694Z,7.97
2022-08-23T21:02:00.445Z,7.70
2022-08-23T21:05:06.373Z,8.23
2022-08-23T21:08:12.840Z,8.23
2022-08-23T21:11:16.535Z,7.82
2022-08-23T21:14:20.812Z,8.40
2022-08-23T21:17:23.835Z,8.40
2022-08-23T21:20:26.560Z,9.30
2022-08-23T21:23:29.606Z,8.93
2022-08-23T21:26:32.416Z,8.23
2022-08-23T21:29:36.571Z,8.10
2022-08-23T21:32:39.293Z,9.20
2022-08-23T21:35:42.552Z,8.65
2022-08-23T21:38:45.423Z,8.85
2022-08-23T21:41:48.626Z,8.80
2022-08-23T21:44:51.334Z,8.17
2022-08-23T21:47:55.312Z,9.10
2022-08-23T21:51:01.253Z,9.35
2022-08-23T21:54:05.889Z,8.98
2022-08-23T21:57:08.562Z,9.48
2022-08-23T22:00:14.357Z,9.43
2022-08-23T22:03:18.539Z,8.90
2022-08-23T22:06:21.251Z,8.43
2022-08-23T22:09:27.424Z,9.43
2022-08-23T22:12:34.573Z,8.82
2022-08-23T22:15:37.658Z,8.67
2022-08-23T22:18:40.479Z,8.17
2022-08-23T22:21:44.692Z,9.25
2022-08-23T22:24:47.731Z,8.70
2022-08-23T22:27:51.498Z,9.43
2022-08-23T22:30:57.919Z,8.30
2022-08-23T22:34:02.609Z,8.93
2022-08-23T22:37:05.268Z,8.50
2022-08-23T22:40:12.189Z,9.70
2022-08-23T22:43:17.420Z,8.45
2022-08-23T22:46:22.111Z,8.43
2022-08-23T22:49:26.383Z,8.67
2022-08-23T22:52:29.675Z,9.07
2022-08-23T22:55:32.395Z,9.25
2022-08-23T22:58:36.028Z,8.95
2022-08-23T23:01:44.284Z,8.80
2022-08-23T23:04:47.513Z,9.00
2022-08-23T23:08:10.347Z,9.18
2022-08-23T23:11:17.611Z,9.27
2022-08-23T23:14:21.653Z,9.60
2022-08-23T23:17:24.707Z,10.13
2022-08-23T23:20:40.959Z,9.70
2022-08-23T23:23:43.976Z,9.88
2022-08-23T23:30:10.334Z,9.63
2022-08-23T23:33:14.988Z,9.90
2022-08-23T23:36:19.608Z,9.00
2022-08-23T23:39:22.397Z,9.13
2022-08-23T23:42:25.449Z,9.57
2022-08-23T23:45:28.483Z,9.65
2022-08-23T23:48:31.602Z,8.40
2022-08-23T23:51:34.594Z,8.50
2022-08-23T23:54:38.667Z,8.55
2022-08-23T23:57:41.762Z,7.62
